sensor_id;sensor_type;location;lat;lon;timestamp;pressure;altitude;pressure_sealevel;temperature;humidity
24045;BME280;26257;49.442;8.422;2022-09-01T00:02:17;100662.25;;;21.68;63.67
24045;BME280;26257;49.442;8.422;2022-09-01T00:04:43;100657.84;;;21.65;63.58
24045;BME280;26257;49.442;8.422;2022-09-01T00:07:11;100655.66;;;21.78;62.70
24045;BME280;26257;49.442;8.422;2022-09-01T00:09:37;100654.19;;;21.68;63.80
24045;BME280;26257;49.442;8.422;2022-09-01T00:12:06;100659.97;;;21.56;64.80
24045;BME280;26257;49.442;8.422;2022-09-01T00:14:36;100659.06;;;21.83;63.73
24045;BME280;26257;49.442;8.422;2022-09-01T00:17:06;100650.94;;;22.12;62.12
24045;BME280;26257;49.442;8.422;2022-09-01T00:19:33;100652.28;;;22.25;61.56
24045;BME280;26257;49.442;8.422;2022-09-01T00:21:59;100648.44;;;22.32;60.80
24045;BME280;26257;49.442;8.422;2022-09-01T00:24:26;100648.00;;;22.20;60.92
24045;BME280;26257;49.442;8.422;2022-09-01T00:26:53;100650.31;;;22.30;59.82
24045;BME280;26257;49.442;8.422;2022-09-01T00:29:18;100649.41;;;22.05;60.63
24045;BME280;26257;49.442;8.422;2022-09-01T00:31:43;100648.66;;;22.26;59.92
24045;BME280;26257;49.442;8.422;2022-09-01T00:34:09;100648.50;;;22.31;59.26
24045;BME280;26257;49.442;8.422;2022-09-01T00:36:35;100645.44;;;22.41;59.31
24045;BME280;26257;49.442;8.422;2022-09-01T00:39:01;100646.28;;;22.17;60.22
24045;BME280;26257;49.442;8.422;2022-09-01T00:41:29;100658.97;;;21.87;60.88
24045;BME280;26257;49.442;8.422;2022-09-01T00:44:01;100654.00;;;21.74;63.05
24045;BME280;26257;49.442;8.422;2022-09-01T00:46:36;100653.53;;;21.89;62.26
24045;BME280;26257;49.442;8.422;2022-09-01T00:49:05;100649.59;;;21.99;61.83
24045;BME280;26257;49.442;8.422;2022-09-01T00:51:34;100652.91;;;22.07;61.48
24045;BME280;26257;49.442;8.422;2022-09-01T00:54:04;100650.16;;;22.08;61.80
24045;BME280;26257;49.442;8.422;2022-09-01T00:56:30;100650.06;;;22.11;61.98
24045;BME280;26257;49.442;8.422;2022-09-01T00:58:57;100649.59;;;21.99;62.08
24045;BME280;26257;49.442;8.422;2022-09-01T01:01:23;100650.56;;;21.69;63.99
24045;BME280;26257;49.442;8.422;2022-09-01T01:03:49;100652.72;;;21.30;65.59
24045;BME280;26257;49.442;8.422;2022-09-01T01:06:15;100654.31;;;21.06;68.64
24045;BME280;26257;49.442;8.422;2022-09-01T01:08:45;100659.25;;;21.21;68.21
24045;BME280;26257;49.442;8.422;2022-09-01T01:11:21;100649.16;;;20.99;68.52
24045;BME280;26257;49.442;8.422;2022-09-01T01:13:56;100657.56;;;21.17;68.18
24045;BME280;26257;49.442;8.422;2022-09-01T01:16:24;100659.53;;;20.80;71.06
24045;BME280;26257;49.442;8.422;2022-09-01T01:18:50;100659.91;;;20.99;69.49
24045;BME280;26257;49.442;8.422;2022-09-01T01:21:24;100655.44;;;20.98;69.67
24045;BME280;26257;49.442;8.422;2022-09-01T01:24:31;100656.63;;;20.87;70.62
24045;BME280;26257;49.442;8.422;2022-09-01T01:26:58;100663.06;;;20.82;71.12
24045;BME280;26257;49.442;8.422;2022-09-01T01:29:26;100641.19;;;20.96;70.55
24045;BME280;26257;49.442;8.422;2022-09-01T01:31:54;100648.88;;;20.77;71.05
24045;BME280;26257;49.442;8.422;2022-09-01T01:34:19;100655.59;;;20.91;70.62
24045;BME280;26257;49.442;8.422;2022-09-01T01:36:45;100648.94;;;21.06;69.33
24045;BME280;26257;49.442;8.422;2022-09-01T01:39:16;100644.84;;;20.91;70.12
24045;BME280;26257;49.442;8.422;2022-09-01T01:41:44;100643.22;;;20.86;70.10
24045;BME280;26257;49.442;8.422;2022-09-01T01:44:14;100649.72;;;21.10;68.73
24045;BME280;26257;49.442;8.422;2022-09-01T01:46:43;100651.03;;;20.95;69.79
24045;BME280;26257;49.442;8.422;2022-09-01T01:49:11;100640.44;;;20.90;71.31
24045;BME280;26257;49.442;8.422;2022-09-01T01:51:43;100647.47;;;20.94;70.24
24045;BME280;26257;49.442;8.422;2022-09-01T01:54:09;100649.25;;;20.94;69.61
24045;BME280;26257;49.442;8.422;2022-09-01T01:56:35;100653.13;;;20.84;69.81
24045;BME280;26257;49.442;8.422;2022-09-01T01:59:06;100650.63;;;20.78;70.53
24045;BME280;26257;49.442;8.422;2022-09-01T02:01:34;100656.56;;;20.89;69.93
24045;BME280;26257;49.442;8.422;2022-09-01T02:04:01;100648.03;;;20.43;72.10
24045;BME280;26257;49.442;8.422;2022-09-01T02:06:31;100656.94;;;20.45;72.08
24045;BME280;26257;49.442;8.422;2022-09-01T02:08:57;100641.88;;;20.39;72.99
24045;BME280;26257;49.442;8.422;2022-09-01T02:11:27;100646.13;;;20.80;70.56
24045;BME280;26257;49.442;8.422;2022-09-01T02:13:54;100652.44;;;20.77;70.30
24045;BME280;26257;49.442;8.422;2022-09-01T02:16:25;100641.25;;;20.92;69.20
24045;BME280;26257;49.442;8.422;2022-09-01T02:18:51;100638.59;;;20.91;68.80
24045;BME280;26257;49.442;8.422;2022-09-01T02:21:20;100646.72;;;20.89;69.07
24045;BME280;26257;49.442;8.422;2022-09-01T02:24:06;100649.78;;;20.76;70.10
24045;BME280;26257;49.442;8.422;2022-09-01T02:26:42;100650.91;;;20.69;70.68
24045;BME280;26257;49.442;8.422;2022-09-01T02:29:16;100658.41;;;20.22;73.59
24045;BME280;26257;49.442;8.422;2022-09-01T02:31:43;100646.63;;;20.29;72.96
24045;BME280;26257;49.442;8.422;2022-09-01T02:34:09;100658.38;;;19.87;75.46
24045;BME280;26257;49.442;8.422;2022-09-01T02:36:39;100655.66;;;19.90;75.52
24045;BME280;26257;49.442;8.422;2022-09-01T02:39:09;100658.00;;;20.02;75.05
24045;BME280;26257;49.442;8.422;2022-09-01T02:41:35;100663.00;;;19.82;75.85
24045;BME280;26257;49.442;8.422;2022-09-01T02:44:02;100653.72;;;19.95;75.17
24045;BME280;26257;49.442;8.422;2022-09-01T02:46:29;100664.88;;;20.14;74.48
24045;BME280;26257;49.442;8.422;2022-09-01T03:09:15;100654.84;;;19.50;86.51
24045;BME280;26257;49.442;8.422;2022-09-01T03:11:43;100651.09;;;19.94;80.81
24045;BME280;26257;49.442;8.422;2022-09-01T03:14:09;100665.41;;;19.93;79.30
24045;BME280;26257;49.442;8.422;2022-09-01T03:16:36;100648.91;;;20.09;78.01
24045;BME280;26257;49.442;8.422;2022-09-01T03:19:04;100656.38;;;19.97;79.13
24045;BME280;26257;49.442;8.422;2022-09-01T03:21:38;100657.63;;;19.82;77.62
24045;BME280;26257;49.442;8.422;2022-09-01T03:24:05;100647.47;;;19.96;77.85
24045;BME280;26257;49.442;8.422;2022-09-01T03:26:33;100649.75;;;20.11;76.53
24045;BME280;26257;49.442;8.422;2022-09-01T03:29:00;100649.53;;;20.20;75.43
24045;BME280;26257;49.442;8.422;2022-09-01T03:31:26;100654.03;;;20.18;74.99
24045;BME280;26257;49.442;8.422;2022-09-01T03:33:54;100651.88;;;19.97;76.66
24045;BME280;26257;49.442;8.422;2022-09-01T03:36:24;100659.75;;;20.05;76.02
24045;BME280;26257;49.442;8.422;2022-09-01T03:38:51;100654.16;;;20.14;75.35
24045;BME280;26257;49.442;8.422;2022-09-01T03:41:20;100657.94;;;20.05;76.31
24045;BME280;26257;49.442;8.422;2022-09-01T03:43:47;100656.13;;;20.06;76.13
24045;BME280;26257;49.442;8.422;2022-09-01T03:46:13;100663.38;;;19.67;77.91
24045;BME280;26257;49.442;8.422;2022-09-01T03:48:47;100654.59;;;19.96;77.73
24045;BME280;26257;49.442;8.422;2022-09-01T03:51:15;100668.72;;;20.04;76.22
24045;BME280;26257;49.442;8.422;2022-09-01T03:53:40;100668.53;;;19.76;76.97
24045;BME280;26257;49.442;8.422;2022-09-01T03:56:06;100672.06;;;19.77;78.51
24045;BME280;26257;49.442;8.422;2022-09-01T03:58:33;100666.75;;;19.75;78.17
24045;BME280;26257;49.442;8.422;2022-09-01T04:00:59;100664.75;;;19.83;78.25
24045;BME280;26257;49.442;8.422;2022-09-01T04:03:29;100663.75;;;19.87;78.16
24045;BME280;26257;49.442;8.422;2022-09-01T04:05:56;100659.34;;;19.86;77.64
24045;BME280;26257;49.442;8.422;2022-09-01T04:08:23;100665.03;;;19.71;78.27
24045;BME280;26257;49.442;8.422;2022-09-01T04:10:52;100665.59;;;19.85;77.98
24045;BME280;26257;49.442;8.422;2022-09-01T04:13:21;100660.72;;;19.65;78.51
24045;BME280;26257;49.442;8.422;2022-09-01T04:15:48;100662.34;;;19.71;78.44
24045;BME280;26257;49.442;8.422;2022-09-01T04:18:14;100664.84;;;19.42;80.16
24045;BME280;26257;49.442;8.422;2022-09-01T04:20:49;100667.38;;;19.48;79.39
24045;BME280;26257;49.442;8.422;2022-09-01T04:23:21;100663.78;;;19.49;80.00
24045;BME280;26257;49.442;8.422;2022-09-01T04:26:07;100661.53;;;19.69;78.38
24045;BME280;26257;49.442;8.422;2022-09-01T04:28:36;100665.34;;;19.59;79.09
24045;BME280;26257;49.442;8.422;2022-09-01T04:31:05;100656.09;;;19.72;78.30
24045;BME280;26257;49.442;8.422;2022-09-01T04:33:37;100662.53;;;19.63;79.19
24045;BME280;26257;49.442;8.422;2022-09-01T04:36:05;100669.59;;;19.28;80.35
24045;BME280;26257;49.442;8.422;2022-09-01T04:38:32;100666.81;;;19.32;80.07
24045;BME280;26257;49.442;8.422;2022-09-01T04:41:04;100662.56;;;19.24;80.50
24045;BME280;26257;49.442;8.422;2022-09-01T04:43:30;100664.84;;;19.42;80.15
24045;BME280;26257;49.442;8.422;2022-09-01T04:45:56;100669.09;;;19.52;79.71
24045;BME280;26257;49.442;8.422;2022-09-01T04:48:23;100668.25;;;19.48;77.83
24045;BME280;26257;49.442;8.422;2022-09-01T04:50:50;100662.84;;;19.51;78.80
24045;BME280;26257;49.442;8.422;2022-09-01T04:53:17;100660.56;;;19.71;77.96
24045;BME280;26257;49.442;8.422;2022-09-01T04:55:44;100668.72;;;19.67;77.73
24045;BME280;26257;49.442;8.422;2022-09-01T04:58:12;100665.41;;;19.56;79.10
24045;BME280;26257;49.442;8.422;2022-09-01T05:00:42;100659.00;;;19.63;77.72
24045;BME280;26257;49.442;8.422;2022-09-01T05:03:09;100665.56;;;19.50;79.29
24045;BME280;26257;49.442;8.422;2022-09-01T05:05:41;100660.81;;;19.61;79.14
24045;BME280;26257;49.442;8.422;2022-09-01T05:08:18;100660.97;;;19.55;78.56
24045;BME280;26257;49.442;8.422;2022-09-01T05:10:47;100662.03;;;19.85;77.25
24045;BME280;26257;49.442;8.422;2022-09-01T05:13:18;100660.34;;;19.42;79.94
24045;BME280;26257;49.442;8.422;2022-09-01T05:15:45;100652.75;;;19.23;79.46
24045;BME280;26257;49.442;8.422;2022-09-01T05:18:17;100665.22;;;19.24;80.21
24045;BME280;26257;49.442;8.422;2022-09-01T05:20:50;100663.66;;;19.55;78.88
24045;BME280;26257;49.442;8.422;2022-09-01T05:23:16;100663.69;;;19.90;76.10
24045;BME280;26257;49.442;8.422;2022-09-01T05:25:47;100665.47;;;19.90;75.90
24045;BME280;26257;49.442;8.422;2022-09-01T05:28:17;100660.63;;;19.68;77.10
24045;BME280;26257;49.442;8.422;2022-09-01T05:30:44;100674.28;;;19.58;79.10
24045;BME280;26257;49.442;8.422;2022-09-01T05:33:11;100660.69;;;20.02;75.09
24045;BME280;26257;49.442;8.422;2022-09-01T05:35:40;100675.09;;;19.98;75.48
24045;BME280;26257;49.442;8.422;2022-09-01T05:38:10;100679.44;;;19.67;76.68
24045;BME280;26257;49.442;8.422;2022-09-01T05:40:41;100678.41;;;20.09;75.46
24045;BME280;26257;49.442;8.422;2022-09-01T05:43:12;100670.91;;;20.23;75.13
24045;BME280;26257;49.442;8.422;2022-09-01T05:45:41;100672.34;;;20.37;73.62
24045;BME280;26257;49.442;8.422;2022-09-01T05:48:11;100666.41;;;20.58;71.36
24045;BME280;26257;49.442;8.422;2022-09-01T05:50:40;100673.44;;;20.29;73.10
24045;BME280;26257;49.442;8.422;2022-09-01T05:53:10;100673.56;;;20.25;74.21
24045;BME280;26257;49.442;8.422;2022-09-01T05:55:41;100673.31;;;20.34;74.26
24045;BME280;26257;49.442;8.422;2022-09-01T05:58:09;100681.16;;;20.42;73.63
24045;BME280;26257;49.442;8.422;2022-09-01T06:00:41;100674.94;;;20.41;74.93
24045;BME280;26257;49.442;8.422;2022-09-01T06:03:09;100680.25;;;20.75;74.98
24045;BME280;26257;49.442;8.422;2022-09-01T06:05:36;100678.13;;;21.18;71.67
24045;BME280;26257;49.442;8.422;2022-09-01T06:08:03;100677.75;;;21.30;69.33
24045;BME280;26257;49.442;8.422;2022-09-01T06:10:30;100672.53;;;21.53;68.24
24045;BME280;26257;49.442;8.422;2022-09-01T06:12:56;100677.47;;;21.69;66.74
24045;BME280;26257;49.442;8.422;2022-09-01T06:15:29;100677.47;;;21.69;68.10
24045;BME280;26257;49.442;8.422;2022-09-01T06:17:57;100669.34;;;21.98;66.04
24045;BME280;26257;49.442;8.422;2022-09-01T06:20:23;100667.53;;;21.98;66.54
24045;BME280;26257;49.442;8.422;2022-09-01T06:22:49;100665.63;;;22.02;68.17
24045;BME280;26257;49.442;8.422;2022-09-01T06:25:16;100662.94;;;22.28;66.02
24045;BME280;26257;49.442;8.422;2022-09-01T06:27:43;100673.50;;;22.34;64.35
24045;BME280;26257;49.442;8.422;2022-09-01T06:30:11;100670.66;;;22.39;64.36
24045;BME280;26257;49.442;8.422;2022-09-01T06:32:42;100665.56;;;22.03;66.43
24045;BME280;26257;49.442;8.422;2022-09-01T06:35:13;100677.84;;;22.12;65.75
24045;BME280;26257;49.442;8.422;2022-09-01T06:37:40;100678.41;;;22.22;65.66
24045;BME280;26257;49.442;8.422;2022-09-01T06:40:09;100670.69;;;22.11;65.13
24045;BME280;26257;49.442;8.422;2022-09-01T06:42:48;100674.34;;;22.36;64.43
24045;BME280;26257;49.442;8.422;2022-09-01T06:45:17;100669.66;;;22.41;63.79
24045;BME280;26257;49.442;8.422;2022-09-01T06:47:44;100671.94;;;22.27;64.16
24045;BME280;26257;49.442;8.422;2022-09-01T06:50:16;100676.94;;;22.39;63.22
24045;BME280;26257;49.442;8.422;2022-09-01T06:52:44;100672.16;;;22.21;64.38
24045;BME280;26257;49.442;8.422;2022-09-01T06:55:12;100682.59;;;22.30;63.64
24045;BME280;26257;49.442;8.422;2022-09-01T06:57:39;100685.13;;;21.81;65.26
24045;BME280;26257;49.442;8.422;2022-09-01T07:00:08;100689.25;;;22.45;62.92
24045;BME280;26257;49.442;8.422;2022-09-01T07:02:54;100691.81;;;22.76;61.51
24045;BME280;26257;49.442;8.422;2022-09-01T07:05:21;100691.81;;;22.76;60.52
24045;BME280;26257;49.442;8.422;2022-09-01T07:07:48;100689.38;;;22.93;60.26
24045;BME280;26257;49.442;8.422;2022-09-01T07:10:17;100692.63;;;23.25;58.65
24045;BME280;26257;49.442;8.422;2022-09-01T07:12:51;100703.19;;;22.84;59.20
24045;BME280;26257;49.442;8.422;2022-09-01T07:15:17;100700.97;;;23.18;58.46
24045;BME280;26257;49.442;8.422;2022-09-01T07:17:54;100698.78;;;23.29;59.16
24045;BME280;26257;49.442;8.422;2022-09-01T07:20:23;100708.84;;;23.01;59.84
24045;BME280;26257;49.442;8.422;2022-09-01T07:22:50;100705.31;;;23.70;57.09
24045;BME280;26257;49.442;8.422;2022-09-01T07:25:16;100699.78;;;23.94;55.59
24045;BME280;26257;49.442;8.422;2022-09-01T07:27:43;100702.56;;;24.15;54.36
24045;BME280;26257;49.442;8.422;2022-09-01T07:30:16;100706.50;;;23.84;55.96
24045;BME280;26257;49.442;8.422;2022-09-01T07:32:43;100703.28;;;23.96;54.63
24045;BME280;26257;49.442;8.422;2022-09-01T07:35:10;100697.16;;;24.15;54.41
24045;BME280;26257;49.442;8.422;2022-09-01T07:37:36;100701.22;;;24.25;54.04
24045;BME280;26257;49.442;8.422;2022-09-01T07:40:07;100696.16;;;23.95;54.65
24045;BME280;26257;49.442;8.422;2022-09-01T07:42:33;100702.44;;;24.18;54.04
24045;BME280;26257;49.442;8.422;2022-09-01T07:44:58;100696.28;;;24.36;54.40
24045;BME280;26257;49.442;8.422;2022-09-01T07:47:25;100702.47;;;24.80;53.24
24045;BME280;26257;49.442;8.422;2022-09-01T07:49:54;100707.22;;;25.13;52.26
24045;BME280;26257;49.442;8.422;2022-09-01T07:52:20;100715.28;;;23.89;56.04
24045;BME280;26257;49.442;8.422;2022-09-01T07:54:45;100725.28;;;23.87;58.02
24045;BME280;26257;49.442;8.422;2022-09-01T07:57:10;100724.38;;;23.42;58.39
24045;BME280;26257;49.442;8.422;2022-09-01T07:59:36;100717.34;;;24.05;56.63
24045;BME280;26257;49.442;8.422;2022-09-01T08:02:03;100713.84;;;24.46;55.08
24045;BME280;26257;49.442;8.422;2022-09-01T08:04:30;100708.19;;;24.52;54.75
24045;BME280;26257;49.442;8.422;2022-09-01T08:06:56;100722.53;;;24.11;56.82
24045;BME280;26257;49.442;8.422;2022-09-01T08:09:21;100719.03;;;24.92;53.97
24045;BME280;26257;49.442;8.422;2022-09-01T08:11:47;100718.22;;;25.49;52.71
24045;BME280;26257;49.442;8.422;2022-09-01T08:14:12;100720.75;;;25.34;52.91
24045;BME280;26257;49.442;8.422;2022-09-01T08:16:38;100719.84;;;25.33;53.48
24045;BME280;26257;49.442;8.422;2022-09-01T08:19:03;100722.31;;;24.17;58.41
24045;BME280;26257;49.442;8.422;2022-09-01T08:21:29;100730.16;;;24.43;57.82
24045;BME280;26257;49.442;8.422;2022-09-01T08:23:55;100723.31;;;25.16;55.75
24045;BME280;26257;49.442;8.422;2022-09-01T08:26:23;100711.94;;;25.49;54.18
24045;BME280;26257;49.442;8.422;2022-09-01T08:28:49;100715.53;;;25.68;52.75
24045;BME280;26257;49.442;8.422;2022-09-01T08:31:17;100719.97;;;25.69;52.94
24045;BME280;26257;49.442;8.422;2022-09-01T08:33:44;100714.78;;;25.46;53.14
24045;BME280;26257;49.442;8.422;2022-09-01T08:36:12;100717.94;;;25.35;53.78
24045;BME280;26257;49.442;8.422;2022-09-01T08:38:39;100721.41;;;25.18;54.66
24045;BME280;26257;49.442;8.422;2022-09-01T08:41:57;100721.84;;;25.09;55.55
24045;BME280;26257;49.442;8.422;2022-09-01T08:46:47;100712.13;;;24.85;57.06
24045;BME280;26257;49.442;8.422;2022-09-01T09:08:59;100715.81;;;25.81;56.00
24045;BME280;26257;49.442;8.422;2022-09-01T09:11:57;100713.03;;;25.82;53.88
24045;BME280;26257;49.442;8.422;2022-09-01T09:17:07;100713.53;;;26.45;52.17
24045;BME280;26257;49.442;8.422;2022-09-01T09:19:39;100720.13;;;26.39;52.70
24045;BME280;26257;49.442;8.422;2022-09-01T09:22:12;100711.06;;;26.74;50.31
24045;BME280;26257;49.442;8.422;2022-09-01T09:27:49;100710.59;;;27.01;50.83
24045;BME280;26257;49.442;8.422;2022-09-01T09:30:27;100704.91;;;26.36;51.37
24045;BME280;26257;49.442;8.422;2022-09-01T09:33:02;100702.31;;;26.16;52.13
24045;BME280;26257;49.442;8.422;2022-09-01T09:35:43;100703.06;;;26.54;50.11
24045;BME280;26257;49.442;8.422;2022-09-01T09:41:07;100689.41;;;27.24;48.30
24045;BME280;26257;49.442;8.422;2022-09-01T09:49:42;100695.69;;;26.75;49.58
24045;BME280;26257;49.442;8.422;2022-09-01T09:54:31;100676.72;;;28.20;45.57
24045;BME280;26257;49.442;8.422;2022-09-01T10:04:47;100671.72;;;27.33;47.25
24045;BME280;26257;49.442;8.422;2022-09-01T10:07:40;100669.34;;;27.91;45.06
24045;BME280;26257;49.442;8.422;2022-09-01T10:13:27;100668.22;;;29.56;40.11
24045;BME280;26257;49.442;8.422;2022-09-01T10:15:58;100668.22;;;29.28;40.86
24045;BME280;26257;49.442;8.422;2022-09-01T10:18:38;100653.44;;;30.67;39.21
24045;BME280;26257;49.442;8.422;2022-09-01T10:21:12;100654.81;;;32.33;35.87
24045;BME280;26257;49.442;8.422;2022-09-01T10:23:39;100646.97;;;32.05;36.15
24045;BME280;26257;49.442;8.422;2022-09-01T10:26:10;100639.03;;;33.62;33.42
24045;BME280;26257;49.442;8.422;2022-09-01T10:28:46;100648.53;;;33.01;33.73
24045;BME280;26257;49.442;8.422;2022-09-01T10:31:13;100649.63;;;32.42;34.97
24045;BME280;26257;49.442;8.422;2022-09-01T10:33:39;100654.31;;;30.55;38.38
24045;BME280;26257;49.442;8.422;2022-09-01T10:36:05;100654.03;;;29.37;40.96
24045;BME280;26257;49.442;8.422;2022-09-01T10:38:31;100650.31;;;28.67;41.85
24045;BME280;26257;49.442;8.422;2022-09-01T10:40:58;100655.16;;;29.89;39.98
24045;BME280;26257;49.442;8.422;2022-09-01T10:43:47;100650.50;;;29.77;39.88
24045;BME280;26257;49.442;8.422;2022-09-01T10:48:52;100644.13;;;30.96;36.84
24045;BME280;26257;49.442;8.422;2022-09-01T10:53:55;100637.91;;;33.20;32.64
24045;BME280;26257;49.442;8.422;2022-09-01T11:06:51;100625.75;;;37.56;25.19
24045;BME280;26257;49.442;8.422;2022-09-01T11:09:31;100617.75;;;37.26;25.17
24045;BME280;26257;49.442;8.422;2022-09-01T11:17:31;100626.47;;;34.87;27.43
24045;BME280;26257;49.442;8.422;2022-09-01T11:20:08;100617.63;;;36.14;26.27
24045;BME280;26257;49.442;8.422;2022-09-01T11:22:44;100625.47;;;34.88;27.29
24045;BME280;26257;49.442;8.422;2022-09-01T11:28:00;100616.34;;;32.48;31.06
24045;BME280;26257;49.442;8.422;2022-09-01T11:33:00;100608.50;;;33.67;30.32
24045;BME280;26257;49.442;8.422;2022-09-01T11:35:28;100600.72;;;33.94;29.50
24045;BME280;26257;49.442;8.422;2022-09-01T11:37:55;100596.94;;;35.70;27.79
24045;BME280;26257;49.442;8.422;2022-09-01T11:40:30;100599.97;;;35.27;27.19
24045;BME280;26257;49.442;8.422;2022-09-01T11:42:58;100608.44;;;34.52;28.33
24045;BME280;26257;49.442;8.422;2022-09-01T11:45:28;100601.97;;;32.68;31.07
24045;BME280;26257;49.442;8.422;2022-09-01T11:48:05;100602.13;;;31.35;32.23
24045;BME280;26257;49.442;8.422;2022-09-01T11:50:37;100602.47;;;32.62;31.29
24045;BME280;26257;49.442;8.422;2022-09-01T11:53:04;100596.28;;;35.47;27.37
24045;BME280;26257;49.442;8.422;2022-09-01T11:55:35;100594.81;;;34.83;27.57
24045;BME280;26257;49.442;8.422;2022-09-01T11:58:01;100588.72;;;34.06;28.68
24045;BME280;26257;49.442;8.422;2022-09-01T12:00:32;100596.34;;;32.23;30.97
24045;BME280;26257;49.442;8.422;2022-09-01T12:03:04;100602.34;;;31.32;32.77
24045;BME280;26257;49.442;8.422;2022-09-01T12:05:36;100605.22;;;31.31;32.93
24045;BME280;26257;49.442;8.422;2022-09-01T12:08:11;100600.03;;;32.11;32.40
24045;BME280;26257;49.442;8.422;2022-09-01T12:10:39;100591.06;;;34.84;27.64
24045;BME280;26257;49.442;8.422;2022-09-01T12:15:38;100579.31;;;36.78;25.82
24045;BME280;26257;49.442;8.422;2022-09-01T12:18:21;100575.28;;;35.76;25.72
24045;BME280;26257;49.442;8.422;2022-09-01T12:20:48;100574.56;;;37.17;24.75
24045;BME280;26257;49.442;8.422;2022-09-01T12:25:42;100575.84;;;33.75;28.68
24045;BME280;26257;49.442;8.422;2022-09-01T12:28:08;100579.69;;;34.88;27.27
24045;BME280;26257;49.442;8.422;2022-09-01T12:30:36;100579.38;;;32.99;29.56
24045;BME280;26257;49.442;8.422;2022-09-01T12:33:06;100581.47;;;31.56;31.69
24045;BME280;26257;49.442;8.422;2022-09-01T12:35:34;100572.66;;;32.92;31.11
24045;BME280;26257;49.442;8.422;2022-09-01T12:40:44;100562.28;;;34.57;27.99
24045;BME280;26257;49.442;8.422;2022-09-01T12:43:10;100553.88;;;36.57;25.12
24045;BME280;26257;49.442;8.422;2022-09-01T12:45:41;100552.25;;;38.27;23.62
24045;BME280;26257;49.442;8.422;2022-09-01T12:48:37;100554.59;;;38.04;23.12
24045;BME280;26257;49.442;8.422;2022-09-01T12:51:19;100549.91;;;38.14;22.50
24045;BME280;26257;49.442;8.422;2022-09-01T12:53:54;100556.25;;;36.88;24.27
24045;BME280;26257;49.442;8.422;2022-09-01T12:56:34;100548.38;;;36.09;25.23
24045;BME280;26257;49.442;8.422;2022-09-01T12:59:12;100556.31;;;34.00;28.16
24045;BME280;26257;49.442;8.422;2022-09-01T13:01:40;100560.50;;;34.98;26.74
24045;BME280;26257;49.442;8.422;2022-09-01T13:06:50;100550.41;;;34.15;27.71
24045;BME280;26257;49.442;8.422;2022-09-01T13:09:16;100550.19;;;34.81;26.70
24045;BME280;26257;49.442;8.422;2022-09-01T13:11:42;100541.69;;;35.82;24.85
24045;BME280;26257;49.442;8.422;2022-09-01T13:14:09;100549.75;;;36.80;24.95
24045;BME280;26257;49.442;8.422;2022-09-01T13:16:35;100548.38;;;38.02;23.03
24045;BME280;26257;49.442;8.422;2022-09-01T13:19:01;100540.81;;;37.42;22.72
24045;BME280;26257;49.442;8.422;2022-09-01T13:21:27;100530.00;;;38.28;22.30
24045;BME280;26257;49.442;8.422;2022-09-01T13:23:54;100528.97;;;39.32;21.50
24045;BME280;26257;49.442;8.422;2022-09-01T13:26:19;100529.03;;;39.57;21.47
24045;BME280;26257;49.442;8.422;2022-09-01T13:28:44;100529.19;;;40.45;20.51
24045;BME280;26257;49.442;8.422;2022-09-01T13:31:10;100539.00;;;38.74;20.96
24045;BME280;26257;49.442;8.422;2022-09-01T13:33:36;100530.38;;;37.36;22.34
24045;BME280;26257;49.442;8.422;2022-09-01T13:36:03;100520.84;;;38.97;21.18
24045;BME280;26257;49.442;8.422;2022-09-01T13:38:28;100520.00;;;39.05;21.36
24045;BME280;26257;49.442;8.422;2022-09-01T13:40:56;100517.44;;;40.11;19.25
24045;BME280;26257;49.442;8.422;2022-09-01T13:43:23;100514.69;;;39.11;20.02
24045;BME280;26257;49.442;8.422;2022-09-01T13:45:51;100521.41;;;40.17;19.66
24045;BME280;26257;49.442;8.422;2022-09-01T13:48:17;100515.16;;;38.04;21.62
24045;BME280;26257;49.442;8.422;2022-09-01T13:50:45;100520.94;;;38.36;21.36
24045;BME280;26257;49.442;8.422;2022-09-01T13:53:13;100505.81;;;39.33;20.47
24045;BME280;26257;49.442;8.422;2022-09-01T13:55:39;100507.41;;;39.02;20.70
24045;BME280;26257;49.442;8.422;2022-09-01T13:58:05;100512.00;;;37.99;21.60
24045;BME280;26257;49.442;8.422;2022-09-01T14:00:36;100515.69;;;36.06;24.17
24045;BME280;26257;49.442;8.422;2022-09-01T14:03:13;100508.41;;;36.33;23.24
24045;BME280;26257;49.442;8.422;2022-09-01T14:05:42;100504.72;;;38.59;21.35
24045;BME280;26257;49.442;8.422;2022-09-01T14:08:09;100496.41;;;38.33;21.38
24045;BME280;26257;49.442;8.422;2022-09-01T14:10:43;100495.94;;;38.38;21.14
24045;BME280;26257;49.442;8.422;2022-09-01T14:13:09;100500.53;;;37.76;22.30
24045;BME280;26257;49.442;8.422;2022-09-01T14:15:35;100491.81;;;37.36;21.98
24045;BME280;26257;49.442;8.422;2022-09-01T14:18:01;100502.34;;;35.82;23.64
24045;BME280;26257;49.442;8.422;2022-09-01T14:20:35;100503.81;;;36.15;23.87
24045;BME280;26257;49.442;8.422;2022-09-01T14:23:04;100499.50;;;35.34;24.00
24045;BME280;26257;49.442;8.422;2022-09-01T14:25:31;100510.34;;;34.45;25.34
24045;BME280;26257;49.442;8.422;2022-09-01T14:27:58;100505.19;;;33.89;26.49
24045;BME280;26257;49.442;8.422;2022-09-01T14:30:27;100505.75;;;33.07;27.06
24045;BME280;26257;49.442;8.422;2022-09-01T14:32:54;100505.72;;;32.63;27.90
24045;BME280;26257;49.442;8.422;2022-09-01T14:35:22;100505.25;;;32.80;27.47
24045;BME280;26257;49.442;8.422;2022-09-01T14:37:53;100493.03;;;33.28;27.33
24045;BME280;26257;49.442;8.422;2022-09-01T14:40:20;100489.47;;;34.84;25.55
24045;BME280;26257;49.442;8.422;2022-09-01T14:42:48;100487.75;;;35.72;24.46
24045;BME280;26257;49.442;8.422;2022-09-01T14:45:19;100481.75;;;36.34;23.84
24045;BME280;26257;49.442;8.422;2022-09-01T14:47:47;100482.25;;;36.01;24.06
24045;BME280;26257;49.442;8.422;2022-09-01T14:50:13;100480.03;;;36.79;23.22